createdAt,value
2019-05-23T00:00:49.152Z,94.02
2019-05-23T00:03:22.484Z,94.29
2019-05-23T00:05:55.759Z,94.37
2019-05-23T00:08:30.496Z,94.51
2019-05-23T00:11:05.745Z,94.40
2019-05-23T00:13:39.440Z,94.66
2019-05-23T00:16:14.040Z,94.75
2019-05-23T00:18:47.665Z,94.60
2019-05-23T00:21:21.018Z,94.79
2019-05-23T00:23:54.933Z,94.79
2019-05-23T00:26:27.968Z,95.20
2019-05-23T00:29:10.105Z,95.15
2019-05-23T00:31:36.084Z,95.44
2019-05-23T00:34:09.871Z,95.52
2019-05-23T00:36:42.851Z,95.33
2019-05-23T00:39:15.777Z,95.36
2019-05-23T00:41:48.902Z,95.53
2019-05-23T00:44:23.432Z,95.62
2019-05-23T00:46:56.400Z,95.35
2019-05-23T00:49:29.462Z,95.35
2019-05-23T00:52:02.366Z,95.15
2019-05-23T00:54:35.275Z,94.82
2019-05-23T00:57:08.596Z,94.41
2019-05-23T00:59:41.578Z,93.87
2019-05-23T01:02:14.590Z,93.90
2019-05-23T01:04:47.889Z,93.44
2019-05-23T01:07:21.252Z,93.76
2019-05-23T01:09:54.267Z,93.70
2019-05-23T01:12:27.156Z,92.66
2019-05-23T01:15:01.189Z,92.66
2019-05-23T01:17:34.250Z,92.91
2019-05-23T01:20:08.681Z,92.25
2019-05-23T01:22:42.588Z,92.07
2019-05-23T01:25:18.757Z,92.10
2019-05-23T01:27:51.749Z,92.87
2019-05-23T01:30:24.614Z,92.87
2019-05-23T01:32:57.999Z,92.50
2019-05-23T01:35:31.357Z,92.97
2019-05-23T01:38:04.532Z,93.20
2019-05-23T01:40:38.412Z,93.27
2019-05-23T01:43:11.463Z,92.97
2019-05-23T01:45:45.184Z,93.54
2019-05-23T01:48:18.108Z,93.33
2019-05-23T01:50:51.647Z,93.13
2019-05-23T01:53:24.564Z,93.45
2019-05-23T01:55:57.543Z,92.91
2019-05-23T01:58:30.407Z,92.76
2019-05-23T02:01:03.497Z,92.46
2019-05-23T02:03:36.813Z,92.30
2019-05-23T02:06:10.234Z,91.86
2019-05-23T02:08:43.400Z,91.39
2019-05-23T02:11:18.276Z,91.39
2019-05-23T02:13:51.141Z,91.51
2019-05-23T02:16:24.219Z,91.43
2019-05-23T02:18:57.600Z,91.18
2019-05-23T02:21:30.500Z,91.12
2019-05-23T02:24:04.076Z,91.10
2019-05-23T02:26:37.509Z,90.79
2019-05-23T02:29:10.389Z,90.63
2019-05-23T02:31:43.415Z,90.27
2019-05-23T02:34:16.277Z,90.06
2019-05-23T02:36:49.545Z,89.40
2019-05-23T02:39:22.828Z,89.84
2019-05-23T02:41:55.848Z,90.15
2019-05-23T02:44:29.049Z,90.18
2019-05-23T02:47:02.579Z,90.18
2019-05-23T02:49:36.610Z,89.59
2019-05-23T02:52:46.355Z,90.18
2019-05-23T02:55:27.417Z,90.60
2019-05-23T02:58:09.117Z,90.92
2019-05-23T03:00:54.645Z,91.70
2019-05-23T03:03:29.780Z,92.20
2019-05-23T03:06:03.668Z,92.35
2019-05-23T03:08:36.828Z,92.95
2019-05-23T03:11:30.621Z,93.26
2019-05-23T03:14:04.591Z,93.38
2019-05-23T03:16:39.685Z,93.25
2019-05-23T03:19:21.653Z,92.16
2019-05-23T03:21:56.087Z,91.64
2019-05-23T03:24:30.720Z,91.62
2019-05-23T03:27:03.680Z,91.46
2019-05-23T03:29:37.758Z,91.32
2019-05-23T03:32:11.415Z,91.32
2019-05-23T03:34:45.049Z,91.33
2019-05-23T03:37:18.448Z,91.12
2019-05-23T03:39:51.933Z,91.10
2019-05-23T03:42:25.084Z,91.38
2019-05-23T03:44:58.585Z,91.35
2019-05-23T03:47:31.557Z,91.06
2019-05-23T03:50:04.837Z,91.40
2019-05-23T03:52:37.721Z,91.68
2019-05-23T03:55:10.740Z,91.82
2019-05-23T03:57:44.078Z,92.29
2019-05-23T04:00:17.218Z,91.73
2019-05-23T04:02:50.278Z,91.12
2019-05-23T04:05:23.239Z,91.15
2019-05-23T04:07:56.125Z,91.40
2019-05-23T04:10:29.725Z,91.33
2019-05-23T04:13:02.966Z,91.53
2019-05-23T04:15:36.396Z,91.84
2019-05-23T04:18:09.423Z,92.80
2019-05-23T04:20:43.156Z,92.67
2019-05-23T04:23:16.857Z,91.77
2019-05-23T04:25:49.913Z,91.05
2019-05-23T04:28:22.861Z,91.05
2019-05-23T04:30:55.730Z,89.49
2019-05-23T04:33:28.861Z,89.54
2019-05-23T04:36:01.898Z,88.44
2019-05-23T04:38:36.433Z,88.44
2019-05-23T04:41:10.237Z,86.85
2019-05-23T04:43:43.185Z,86.85
2019-05-23T04:46:16.298Z,86.18
2019-05-23T04:48:49.700Z,85.78
2019-05-23T04:51:22.681Z,85.39
2019-05-23T04:53:55.727Z,84.87
2019-05-23T04:56:28.612Z,83.19
2019-05-23T04:59:02.679Z,82.40
2019-05-23T05:01:36.223Z,82.47
2019-05-23T05:04:09.399Z,82.43
2019-05-23T05:06:42.992Z,81.43
2019-05-23T05:09:16.260Z,80.58
2019-05-23T05:11:49.313Z,80.58
2019-05-23T05:14:22.259Z,80.69
2019-05-23T05:16:55.233Z,79.72
2019-05-23T05:19:28.558Z,79.72
2019-05-23T05:22:02.046Z,80.04
2019-05-23T05:24:39.380Z,78.63
2019-05-23T05:27:09.712Z,78.63
2019-05-23T05:29:42.658Z,79.21
2019-05-23T05:32:16.229Z,78.09
2019-05-23T05:34:49.479Z,77.96
2019-05-23T05:37:22.437Z,77.96
2019-05-23T05:39:55.957Z,77.33
2019-05-23T05:42:28.830Z,76.39
2019-05-23T05:45:01.898Z,75.50
2019-05-23T05:47:34.875Z,74.65
2019-05-23T05:50:10.674Z,74.65
2019-05-23T05:52:43.622Z,73.08
2019-05-23T05:55:16.541Z,73.57
2019-05-23T05:57:49.508Z,73.57
2019-05-23T06:00:23.331Z,71.06
2019-05-23T06:03:04.404Z,70.62
2019-05-23T06:05:31.406Z,70.62
2019-05-23T06:08:04.786Z,68.50
2019-05-23T06:10:37.856Z,68.50
2019-05-23T06:13:11.135Z,70.44
2019-05-23T06:15:44.410Z,69.76
2019-05-23T06:18:17.351Z,68.70
2019-05-23T06:20:50.395Z,68.70
2019-05-23T06:23:23.535Z,71.56
2019-05-23T06:25:56.479Z,69.79
2019-05-23T06:28:30.676Z,67.44
2019-05-23T06:31:03.810Z,67.44
2019-05-23T06:33:36.756Z,66.49
2019-05-23T06:36:09.710Z,64.17
2019-05-23T06:38:43.187Z,64.17
2019-05-23T06:41:16.605Z,64.19
2019-05-23T06:43:49.495Z,66.09
2019-05-23T06:46:22.665Z,63.06
2019-05-23T06:48:55.721Z,61.66
2019-05-23T06:51:28.665Z,60.94
2019-05-23T06:54:01.691Z,60.94
2019-05-23T06:56:34.602Z,61.46
2019-05-23T06:59:07.736Z,60.48
2019-05-23T07:01:40.709Z,61.46
2019-05-23T07:04:13.954Z,61.46
2019-05-23T07:06:47.700Z,60.45
2019-05-23T07:09:21.417Z,60.13
2019-05-23T07:11:57.670Z,56.85
2019-05-23T07:14:30.546Z,57.65
2019-05-23T07:17:03.542Z,57.65
2019-05-23T07:19:36.791Z,55.24
2019-05-23T07:22:11.455Z,55.24
2019-05-23T07:24:57.474Z,54.78
2019-05-23T07:27:20.219Z,57.03
2019-05-23T07:29:53.426Z,54.30
2019-05-23T07:32:26.393Z,54.30
2019-05-23T07:34:59.466Z,53.76
2019-05-23T07:37:32.698Z,52.39
2019-05-23T07:40:06.055Z,50.65
2019-05-23T07:42:39.032Z,51.79
2019-05-23T07:45:12.646Z,56.31
2019-05-23T07:47:45.927Z,51.75
2019-05-23T07:50:19.101Z,52.29
2019-05-23T07:52:52.610Z,50.98
2019-05-23T07:55:25.606Z,54.61
2019-05-23T07:57:58.511Z,54.61
2019-05-23T08:00:31.513Z,52.77
2019-05-23T08:03:06.191Z,49.83
2019-05-23T08:05:39.368Z,48.59
2019-05-23T08:08:12.497Z,47.96
2019-05-23T08:10:45.638Z,48.48
2019-05-23T08:13:18.823Z,47.52
2019-05-23T08:15:52.231Z,47.52
2019-05-23T08:18:25.200Z,41.76
2019-05-23T08:20:58.107Z,41.76
2019-05-23T08:23:31.114Z,38.58
2019-05-23T08:26:04.101Z,38.50
2019-05-23T08:28:53.375Z,38.70
2019-05-23T08:31:12.224Z,37.21
2019-05-23T08:33:45.343Z,37.08
2019-05-23T08:36:18.267Z,36.49
2019-05-23T08:38:51.424Z,36.62
2019-05-23T08:41:24.572Z,35.38
2019-05-23T08:43:57.536Z,35.35
2019-05-23T08:46:30.474Z,36.05
2019-05-23T08:49:04.109Z,37.67
2019-05-23T08:51:37.346Z,37.09
2019-05-23T08:54:10.491Z,37.28
2019-05-23T08:56:43.647Z,35.88
2019-05-23T08:59:16.752Z,34.06
2019-05-23T09:01:49.985Z,32.27
2019-05-23T09:04:22.929Z,33.11
2019-05-23T09:06:55.925Z,35.41
2019-05-23T09:09:30.402Z,32.54
2019-05-23T09:12:03.649Z,33.19
2019-05-23T09:14:36.602Z,31.32
2019-05-23T09:17:09.992Z,31.32
2019-05-23T09:19:43.171Z,31.42
2019-05-23T09:22:16.548Z,32.96
2019-05-23T09:24:49.627Z,30.41
2019-05-23T09:27:22.951Z,29.09
2019-05-23T09:29:55.998Z,29.09
2019-05-23T09:32:28.997Z,29.12
2019-05-23T09:35:19.223Z,32.66
2019-05-23T09:37:37.133Z,34.33
2019-05-23T09:40:10.800Z,32.49
2019-05-23T09:42:43.942Z,29.81
2019-05-23T09:45:17.385Z,32.16
2019-05-23T09:47:51.612Z,32.78
2019-05-23T09:50:24.794Z,32.78
2019-05-23T09:53:00.459Z,34.26
2019-05-23T09:55:32.495Z,33.37
2019-05-23T09:58:05.451Z,31.78
2019-05-23T10:00:38.416Z,30.53
2019-05-23T10:03:11.695Z,36.54
2019-05-23T10:05:44.737Z,36.31
2019-05-23T10:08:17.728Z,34.76
2019-05-23T10:10:50.655Z,31.11
2019-05-23T10:13:38.506Z,33.28
2019-05-23T10:15:59.161Z,32.37
2019-05-23T10:18:32.240Z,35.56
2019-05-23T10:21:05.385Z,38.66
2019-05-23T10:23:38.300Z,42.48
2019-05-23T10:26:11.345Z,42.48
2019-05-23T10:28:44.186Z,38.23
2019-05-23T10:31:17.281Z,32.29
2019-05-23T10:33:50.241Z,32.29
2019-05-23T10:36:23.087Z,29.84
2019-05-23T10:38:56.111Z,30.45
2019-05-23T10:41:29.575Z,28.83
2019-05-23T10:44:02.627Z,31.41
2019-05-23T10:46:35.558Z,31.41
2019-05-23T10:49:08.489Z,30.38
2019-05-23T10:51:41.415Z,31.48
2019-05-23T10:54:14.321Z,29.09
2019-05-23T10:56:47.249Z,30.43
2019-05-23T10:59:20.224Z,31.12
2019-05-23T11:01:53.408Z,30.70
2019-05-23T11:04:26.540Z,29.53
2019-05-23T11:06:59.865Z,33.12
2019-05-23T11:09:37.730Z,32.27
2019-05-23T11:12:08.143Z,30.62
2019-05-23T11:14:41.334Z,33.91
2019-05-23T17:42:40.520Z,41.28
2019-05-23T17:45:14.284Z,43.36
2019-05-23T17:47:47.341Z,43.36
2019-05-23T17:50:20.448Z,43.12
2019-05-23T17:52:53.548Z,43.80
2019-05-23T17:55:26.602Z,43.80
2019-05-23T17:57:59.735Z,44.08
2019-05-23T18:00:32.636Z,44.08
2019-05-23T18:03:05.904Z,44.52
2019-05-23T18:05:39.324Z,44.52
2019-05-23T18:08:12.374Z,44.18
2019-05-23T18:10:46.252Z,46.78
2019-05-23T18:13:20.266Z,46.78
2019-05-23T18:15:53.461Z,47.86
2019-05-23T18:18:26.376Z,47.00
2019-05-23T18:20:59.526Z,48.71
2019-05-23T18:23:32.883Z,48.71
2019-05-23T18:26:06.767Z,48.71
2019-05-23T18:28:39.858Z,48.94
2019-05-23T18:31:13.891Z,50.55
2019-05-23T18:33:47.260Z,51.64
2019-05-23T18:36:20.213Z,51.64
2019-05-23T18:38:53.144Z,52.47
2019-05-23T18:41:26.256Z,53.54
2019-05-23T18:43:59.765Z,55.26
2019-05-23T18:46:32.630Z,55.26
2019-05-23T18:49:05.592Z,56.05
2019-05-23T18:51:38.422Z,56.60
2019-05-23T18:54:11.398Z,56.60
2019-05-23T18:56:44.343Z,58.23
2019-05-23T18:59:17.365Z,58.82
2019-05-23T19:01:50.330Z,58.82
2019-05-23T19:04:23.386Z,59.53
2019-05-23T19:06:56.322Z,59.74
2019-05-23T19:09:29.266Z,59.74
2019-05-23T19:12:02.673Z,59.17
2019-05-23T19:14:35.517Z,60.02
2019-05-23T19:17:08.364Z,60.02
2019-05-23T19:19:41.294Z,60.30
2019-05-23T19:22:14.318Z,61.47
2019-05-23T19:24:47.312Z,61.05
2019-05-23T19:27:20.243Z,61.05
2019-05-23T19:29:53.513Z,62.64
2019-05-23T19:32:26.425Z,62.36
2019-05-23T19:34:59.375Z,62.85
2019-05-23T19:37:32.468Z,62.85
2019-05-23T19:40:05.702Z,63.11
2019-05-23T19:42:38.567Z,63.99
2019-05-23T19:45:11.818Z,64.33
2019-05-23T19:47:44.740Z,65.40
2019-05-23T19:50:17.860Z,65.40
2019-05-23T19:52:50.883Z,65.80
2019-05-23T19:55:24.240Z,65.80
2019-05-23T19:57:57.251Z,66.83
2019-05-23T20:00:30.394Z,66.45
2019-05-23T20:03:04.248Z,66.62
2019-05-23T20:05:37.600Z,66.62
2019-05-23T20:08:11.352Z,66.71
2019-05-23T20:10:45.406Z,66.84
2019-05-23T20:13:19.051Z,66.94
2019-05-23T20:15:52.207Z,66.94
2019-05-23T20:18:25.389Z,68.10
2019-05-23T20:20:58.598Z,69.65
2019-05-23T20:23:31.877Z,70.54
2019-05-23T20:26:07.915Z,72.54
2019-05-23T20:28:40.417Z,72.54
2019-05-23T20:31:13.519Z,72.22
2019-05-23T20:33:46.604Z,72.22
2019-05-23T20:36:19.745Z,72.23
2019-05-23T21:22:26.245Z,79.19
2019-05-23T21:24:59.203Z,79.58
2019-05-23T21:27:32.235Z,79.84
2019-05-23T21:30:05.581Z,79.05
2019-05-23T21:32:38.703Z,79.05
2019-05-23T21:35:11.647Z,79.13
2019-05-23T21:37:45.015Z,79.13
2019-05-23T21:40:31.400Z,79.55
2019-05-23T21:43:04.739Z,79.74
2019-05-23T21:45:37.719Z,79.74
2019-05-23T21:48:10.995Z,80.38
2019-05-23T21:50:44.046Z,81.29
2019-05-23T21:53:16.957Z,81.38
2019-05-23T21:55:49.947Z,81.28
2019-05-23T21:58:23.141Z,81.61
2019-05-23T22:01:08.418Z,81.61
2019-05-23T22:03:41.351Z,81.86
2019-05-23T22:06:14.369Z,81.93
2019-05-23T22:08:47.787Z,82.21
2019-05-23T22:11:20.792Z,82.68
2019-05-23T22:13:53.835Z,82.68
2019-05-23T22:16:26.781Z,82.66
2019-05-23T22:18:59.802Z,82.51
2019-05-23T22:21:33.017Z,82.93
2019-05-23T22:24:05.967Z,83.71
2019-05-23T22:26:38.994Z,83.71
2019-05-23T22:29:11.960Z,83.83
2019-05-23T22:31:45.046Z,86.00
2019-05-23T22:34:18.012Z,86.00
2019-05-23T22:36:51.041Z,86.26
2019-05-23T22:39:24.121Z,86.42
2019-05-23T22:41:57.116Z,86.42
2019-05-23T22:44:30.114Z,85.17
2019-05-23T22:47:03.185Z,85.15
2019-05-23T22:49:36.253Z,85.17
2019-05-23T22:52:09.265Z,85.39
2019-05-23T22:54:42.564Z,85.39
2019-05-23T22:57:15.618Z,85.91
2019-05-23T22:59:48.625Z,86.08
2019-05-23T23:02:21.583Z,85.99
2019-05-23T23:04:54.516Z,86.40
2019-05-23T23:07:27.957Z,87.18
2019-05-23T23:10:01.137Z,87.81
2019-05-23T23:12:34.231Z,88.14
2019-05-23T23:15:07.407Z,87.69
2019-05-23T23:17:40.361Z,87.22
2019-05-23T23:20:13.601Z,86.97
2019-05-23T23:22:46.849Z,87.29
2019-05-23T23:25:20.113Z,87.14
2019-05-23T23:27:53.127Z,87.72
2019-05-23T23:30:26.142Z,87.72
2019-05-23T23:32:59.079Z,88.16
2019-05-23T23:35:32.275Z,88.72
2019-05-23T23:38:05.412Z,88.57
2019-05-23T23:40:38.488Z,87.93
2019-05-23T23:43:11.411Z,88.52
2019-05-23T23:45:44.430Z,88.52
2019-05-23T23:48:17.343Z,89.79
2019-05-23T23:50:50.322Z,89.79
2019-05-23T23:53:23.463Z,90.45
2019-05-23T23:55:57.601Z,90.45
2019-05-23T23:58:30.652Z,90.28
